createdAt,value
2019-01-03T00:02:14.855Z,8.10
2019-01-03T00:04:55.160Z,7.45
2019-01-03T00:07:49.420Z,8.03
2019-01-03T00:10:46.887Z,7.45
2019-01-03T00:13:30.974Z,8.13
2019-01-03T00:16:17.266Z,9.20
2019-01-03T00:19:20.880Z,7.90
2019-01-03T00:22:12.375Z,8.93
2019-01-03T00:25:00.229Z,7.72
2019-01-03T00:28:06.840Z,7.42
2019-01-03T00:31:02.110Z,7.78
2019-01-03T00:34:10.296Z,24.52
2019-01-03T00:36:57.799Z,12.20
2019-01-03T00:39:45.984Z,7.55
2019-01-03T00:42:25.177Z,5.90
2019-01-03T00:45:11.989Z,5.65
2019-01-03T00:48:01.943Z,6.95
2019-01-03T00:50:50.183Z,6.50
2019-01-03T00:53:35.248Z,6.78
2019-01-03T00:56:23.466Z,7.67
2019-01-03T00:59:13.240Z,7.47
2019-01-03T01:01:56.932Z,7.30
2019-01-03T01:04:43.719Z,6.60
2019-01-03T01:07:30.874Z,6.40
2019-01-03T01:10:25.191Z,6.80
2019-01-03T01:13:08.698Z,6.87
2019-01-03T01:16:02.716Z,6.83
2019-01-03T01:19:06.039Z,7.17
2019-01-03T01:21:53.166Z,6.58
2019-01-03T01:24:56.683Z,6.47
2019-01-03T01:27:44.219Z,7.53
2019-01-03T01:30:35.514Z,6.25
2019-01-03T01:33:27.003Z,7.03
2019-01-03T01:36:14.037Z,7.92
2019-01-03T01:39:11.553Z,7.15
2019-01-03T01:41:59.722Z,7.92
2019-01-03T01:44:56.976Z,7.55
2019-01-03T01:47:33.614Z,8.00
2019-01-03T01:50:21.777Z,9.23
2019-01-03T01:53:08.842Z,9.58
2019-01-03T01:56:15.460Z,7.80
2019-01-03T01:59:02.534Z,6.72
2019-01-03T02:01:42.570Z,7.42
2019-01-03T02:04:34.358Z,7.20
2019-01-03T02:07:22.887Z,8.25
2019-01-03T02:10:08.836Z,7.42
2019-01-03T02:12:57.880Z,7.62
2019-01-03T02:15:49.122Z,8.00
2019-01-03T02:18:36.750Z,6.92
2019-01-03T02:21:34.121Z,7.60
2019-01-03T02:24:21.177Z,7.05
2019-01-03T02:27:13.602Z,7.80
2019-01-03T02:30:00.789Z,7.92
2019-01-03T02:32:51.516Z,7.42
2019-01-03T02:35:38.169Z,8.28
2019-01-03T02:38:35.204Z,7.40
2019-01-03T02:41:23.368Z,8.43
2019-01-03T02:44:14.541Z,8.58
2019-01-03T02:47:11.896Z,9.30
2019-01-03T02:50:03.110Z,9.05
2019-01-03T02:52:49.886Z,7.55
2019-01-03T02:55:36.969Z,8.05
2019-01-03T02:58:37.343Z,8.60
2019-01-03T03:01:25.541Z,7.87
2019-01-03T03:04:12.573Z,7.75
2019-01-03T03:06:59.701Z,7.17
2019-01-03T03:09:47.879Z,7.45
2019-01-03T03:12:36.119Z,8.28
2019-01-03T03:15:30.252Z,8.08
2019-01-03T03:18:17.251Z,7.55
2019-01-03T03:21:05.414Z,7.42
2019-01-03T03:23:53.616Z,6.83
2019-01-03T03:26:44.581Z,7.35
2019-01-03T03:29:45.221Z,8.15
2019-01-03T03:32:33.578Z,9.05
2019-01-03T03:35:20.725Z,8.23
2019-01-03T03:38:21.017Z,8.00
2019-01-03T03:41:07.857Z,7.45
2019-01-03T03:43:56.053Z,7.35
2019-01-03T03:46:47.262Z,7.87
2019-01-03T03:49:28.930Z,7.83
2019-01-03T03:52:16.215Z,7.47
2019-01-03T03:55:03.241Z,8.70
2019-01-03T03:57:54.425Z,8.30
2019-01-03T04:00:43.374Z,9.25
2019-01-03T04:03:31.568Z,8.10
2019-01-03T04:06:18.454Z,8.53
2019-01-03T04:09:05.590Z,8.65
2019-01-03T04:11:57.155Z,9.30
2019-01-03T04:14:44.860Z,8.80
2019-01-03T04:17:32.250Z,7.97
2019-01-03T04:20:19.522Z,8.43
2019-01-03T04:23:09.266Z,8.70
2019-01-03T04:26:00.466Z,8.50
2019-01-03T04:28:51.686Z,7.70
2019-01-03T04:31:42.745Z,8.23
2019-01-03T04:34:29.654Z,8.28
2019-01-03T04:37:23.879Z,8.10
2019-01-03T04:40:30.730Z,8.98
2019-01-03T04:43:25.512Z,8.90
2019-01-03T04:46:16.340Z,7.53
2019-01-03T04:49:11.607Z,12.58
2019-01-03T04:51:59.648Z,8.90
2019-01-03T04:54:48.919Z,8.15
2019-01-03T04:57:37.090Z,7.97
2019-01-03T05:00:28.539Z,7.50
2019-01-03T05:03:15.304Z,7.67
2019-01-03T05:06:02.084Z,7.47
2019-01-03T05:08:48.645Z,8.20
2019-01-03T05:11:35.475Z,8.93
2019-01-03T05:14:29.722Z,8.95
2019-01-03T05:17:20.705Z,11.05
2019-01-03T05:20:07.719Z,10.93
2019-01-03T05:22:59.123Z,9.13
2019-01-03T05:25:56.333Z,8.60
2019-01-03T05:28:57.300Z,7.83
2019-01-03T05:31:54.916Z,8.25
2019-01-03T05:34:55.393Z,8.05
2019-01-03T05:37:43.113Z,7.80
2019-01-03T05:40:34.298Z,7.80
2019-01-03T05:43:32.147Z,11.65
2019-01-03T05:46:21.276Z,8.95
2019-01-03T05:49:09.198Z,8.08
2019-01-03T05:51:56.271Z,9.40
2019-01-03T05:54:59.847Z,8.25
2019-01-03T05:57:54.201Z,13.32
2019-01-03T06:00:43.815Z,9.63
2019-01-03T06:03:31.185Z,14.18
2019-01-03T06:06:13.551Z,8.25
2019-01-03T06:09:02.976Z,9.58
2019-01-03T06:11:52.091Z,10.30
2019-01-03T06:14:38.910Z,10.05
2019-01-03T06:17:20.623Z,7.83
2019-01-03T06:20:07.355Z,8.60
2019-01-03T06:22:57.293Z,8.30
2019-01-03T06:25:54.672Z,8.48
2019-01-03T06:28:51.976Z,8.08
2019-01-03T06:31:40.090Z,8.30
2019-01-03T06:34:28.291Z,7.45
2019-01-03T06:37:19.235Z,9.38
2019-01-03T06:40:07.530Z,10.85
2019-01-03T06:43:14.191Z,8.90
2019-01-03T06:46:01.282Z,9.08
2019-01-03T06:49:01.794Z,7.45
2019-01-03T06:51:51.422Z,8.50
2019-01-03T06:54:38.235Z,8.28
2019-01-03T06:57:26.468Z,8.90
2019-01-03T07:00:13.601Z,9.55
2019-01-03T07:02:53.459Z,8.20
2019-01-03T07:05:40.220Z,8.98
2019-01-03T07:08:27.270Z,9.10
2019-01-03T07:11:27.742Z,7.80
2019-01-03T07:14:14.629Z,8.73
2019-01-03T07:17:02.785Z,8.80
2019-01-03T07:19:56.915Z,8.45
2019-01-03T07:22:54.279Z,10.55
2019-01-03T07:25:41.383Z,9.63
2019-01-03T07:28:28.530Z,8.68
2019-01-03T07:31:19.649Z,8.60
2019-01-03T07:34:22.985Z,8.13
2019-01-03T07:37:11.157Z,8.88
2019-01-03T07:39:59.094Z,8.35
2019-01-03T07:42:46.165Z,9.75
2019-01-03T07:45:43.691Z,9.58
2019-01-03T07:48:44.397Z,8.68
2019-01-03T07:51:31.231Z,8.58
2019-01-03T07:54:17.969Z,7.85
2019-01-03T07:57:02.818Z,7.85
2019-01-03T07:59:45.433Z,7.85
2019-01-03T08:02:38.129Z,9.90
2019-01-03T08:05:25.133Z,8.33
2019-01-03T08:08:25.626Z,9.70
2019-01-03T08:11:13.263Z,10.60
2019-01-03T08:14:08.390Z,8.18
2019-01-03T08:16:54.593Z,8.55
2019-01-03T08:19:41.861Z,7.47
2019-01-03T08:22:39.117Z,7.22
2019-01-03T08:25:36.423Z,7.72
2019-01-03T08:28:24.577Z,8.88
2019-01-03T08:31:18.952Z,13.53
2019-01-03T08:34:21.193Z,14.50
2019-01-03T08:37:10.427Z,9.65
2019-01-03T08:39:58.131Z,11.08
2019-01-03T08:42:45.122Z,10.15
2019-01-03T08:45:48.653Z,11.03
2019-01-03T08:48:36.457Z,10.20
2019-01-03T08:51:24.841Z,8.53
2019-01-03T08:54:13.277Z,8.35
2019-01-03T08:57:04.783Z,8.15
2019-01-03T08:59:51.818Z,8.65
2019-01-03T09:02:55.639Z,10.58
2019-01-03T09:05:42.694Z,10.38
2019-01-03T09:08:29.453Z,8.83
2019-01-03T09:11:15.253Z,8.28
2019-01-03T09:14:02.763Z,9.63
2019-01-03T09:16:49.476Z,9.45
2019-01-03T09:19:36.715Z,8.58
2019-01-03T09:22:34.201Z,9.78
2019-01-03T09:25:40.549Z,8.58
2019-01-03T09:28:32.707Z,9.93
2019-01-03T09:31:34.632Z,9.38
2019-01-03T09:34:32.090Z,10.58
2019-01-03T09:37:26.974Z,11.38
2019-01-03T09:40:12.692Z,10.45
2019-01-03T09:42:59.473Z,11.57
2019-01-03T09:45:29.700Z,11.63
2019-01-03T09:48:00.150Z,11.05
2019-01-03T09:50:29.359Z,12.00
2019-01-03T09:52:58.673Z,10.90
2019-01-03T09:55:30.556Z,11.48
2019-01-03T09:58:00.575Z,11.68
2019-01-03T10:00:29.749Z,12.73
2019-01-03T10:02:58.937Z,11.00
2019-01-03T10:05:28.069Z,11.60
2019-01-03T10:07:57.255Z,11.63
2019-01-03T10:10:26.969Z,11.80
2019-01-03T10:12:57.251Z,11.33
2019-01-03T10:15:26.384Z,10.43
2019-01-03T10:17:55.791Z,11.25
2019-01-03T10:20:25.041Z,10.35
2019-01-03T10:22:54.569Z,11.53
2019-01-03T10:25:23.754Z,10.55
2019-01-03T10:27:53.030Z,10.60
2019-01-03T10:30:22.190Z,10.10
2019-01-03T10:32:51.354Z,7.92
2019-01-03T10:35:20.976Z,9.70
2019-01-03T10:37:50.171Z,9.50
2019-01-03T10:40:19.900Z,9.60
2019-01-03T10:42:52.151Z,9.55
2019-01-03T10:45:22.148Z,10.65
2019-01-03T10:47:55.458Z,9.93
2019-01-03T10:50:25.176Z,13.05
2019-01-03T10:52:55.282Z,11.55
2019-01-03T10:55:24.594Z,10.98
2019-01-03T10:57:54.896Z,10.48
2019-01-03T11:00:24.153Z,13.18
2019-01-03T11:02:54.657Z,16.30
2019-01-03T11:05:23.834Z,17.35
2019-01-03T11:07:53.139Z,20.27
2019-01-03T11:10:22.358Z,21.15
2019-01-03T11:12:51.570Z,22.65
2019-01-03T11:15:21.968Z,20.30
2019-01-03T11:17:51.076Z,21.50
2019-01-03T11:20:20.203Z,20.75
2019-01-03T11:22:49.449Z,20.40
2019-01-03T11:25:18.630Z,18.87
2019-01-03T11:27:47.823Z,17.65
2019-01-03T11:30:17.333Z,17.52
2019-01-03T11:32:46.901Z,18.40
2019-01-03T11:35:16.164Z,16.32
2019-01-03T11:37:45.438Z,15.45
2019-01-03T11:40:14.715Z,14.75
2019-01-03T11:42:51.502Z,14.53
2019-01-03T11:45:20.843Z,13.75
2019-01-03T11:47:51.140Z,13.45
2019-01-03T11:50:22.116Z,13.78
2019-01-03T11:52:51.579Z,14.53
2019-01-03T11:55:21.556Z,15.38
2019-01-03T11:57:51.046Z,17.77
2019-01-03T12:00:23.141Z,19.42
2019-01-03T12:02:53.200Z,20.12
2019-01-03T12:05:23.183Z,18.48
2019-01-03T12:07:52.950Z,18.20
2019-01-03T12:10:22.150Z,19.87
2019-01-03T12:12:54.053Z,21.75
2019-01-03T12:15:23.206Z,20.85
2019-01-03T12:17:53.486Z,20.10
2019-01-03T12:20:23.832Z,22.25
2019-01-03T12:22:57.481Z,21.35
2019-01-03T12:25:26.905Z,20.82
2019-01-03T12:28:06.872Z,18.80
2019-01-03T12:30:38.163Z,19.45
2019-01-03T12:33:08.628Z,17.92
2019-01-03T12:35:38.777Z,17.60
2019-01-03T12:38:09.984Z,18.10
2019-01-03T12:40:39.395Z,17.82
2019-01-03T12:43:12.986Z,17.73
2019-01-03T12:45:44.290Z,17.12
2019-01-03T12:48:13.619Z,14.80
2019-01-03T12:50:42.733Z,15.53
2019-01-03T12:53:11.991Z,15.80
2019-01-03T12:55:41.149Z,17.73
2019-01-03T12:58:10.373Z,18.45
2019-01-03T13:00:39.718Z,16.87
2019-01-03T13:03:09.360Z,17.73
2019-01-03T13:05:38.669Z,18.02
2019-01-03T13:08:08.431Z,18.02
2019-01-03T13:10:38.381Z,16.62
2019-01-03T13:13:08.631Z,15.13
2019-01-03T13:15:37.947Z,15.75
2019-01-03T13:18:07.211Z,14.60
2019-01-03T13:20:39.261Z,14.53
2019-01-03T13:23:09.666Z,14.07
2019-01-03T13:25:39.017Z,13.75
2019-01-03T13:28:13.408Z,14.68
2019-01-03T13:30:44.944Z,11.55
2019-01-03T13:33:16.000Z,12.00
2019-01-03T13:35:45.527Z,12.23
2019-01-03T13:38:14.886Z,11.78
2019-01-03T13:40:44.130Z,12.23
2019-01-03T13:43:13.314Z,10.85
2019-01-03T13:45:42.549Z,9.90
2019-01-03T13:48:11.821Z,9.80
2019-01-03T13:50:42.903Z,10.88
2019-01-03T13:53:12.046Z,10.20
2019-01-03T13:55:41.385Z,10.20
2019-01-03T13:58:10.553Z,9.83
2019-01-03T14:00:39.879Z,10.60
2019-01-03T14:03:09.046Z,11.22
2019-01-03T14:05:38.918Z,10.48
2019-01-03T14:08:11.054Z,10.28
2019-01-03T14:10:45.044Z,10.18
2019-01-03T14:13:12.875Z,9.25
2019-01-03T14:15:43.417Z,9.28
2019-01-03T14:18:16.688Z,9.38
2019-01-03T14:20:46.012Z,8.65
2019-01-03T14:23:16.121Z,7.60
2019-01-03T14:25:45.210Z,9.15
2019-01-03T14:28:18.806Z,6.25
2019-01-03T14:30:47.982Z,6.50
2019-01-03T14:33:17.180Z,7.50
2019-01-03T14:35:46.345Z,7.00
2019-01-03T14:38:18.409Z,6.70
2019-01-03T14:40:47.592Z,7.40
2019-01-03T14:43:16.844Z,9.00
2019-01-03T14:45:46.438Z,9.25
2019-01-03T14:48:17.258Z,8.93
2019-01-03T14:50:46.492Z,9.10
2019-01-03T14:53:20.357Z,9.60
2019-01-03T14:55:50.130Z,8.05
2019-01-03T14:58:20.190Z,8.83
2019-01-03T15:00:50.938Z,9.55
2019-01-03T15:03:20.415Z,9.88
2019-01-03T15:05:49.681Z,10.00
2019-01-03T15:08:18.942Z,10.25
2019-01-03T15:10:49.024Z,11.33
2019-01-03T15:13:19.310Z,9.50
2019-01-03T15:15:48.478Z,9.85
2019-01-03T15:18:28.038Z,9.18
2019-01-03T15:20:59.616Z,11.15
2019-01-03T15:23:28.858Z,12.03
2019-01-03T15:25:59.273Z,12.65
2019-01-03T15:28:28.474Z,12.35
2019-01-03T15:30:57.962Z,13.35
2019-01-03T15:33:35.495Z,10.15
2019-01-03T15:36:05.438Z,9.43
2019-01-03T15:38:34.708Z,9.30
2019-01-03T15:41:04.227Z,8.70
2019-01-03T15:43:33.774Z,10.40
2019-01-03T15:46:07.612Z,11.25
2019-01-03T15:48:38.190Z,10.70
2019-01-03T15:51:07.956Z,9.48
2019-01-03T15:53:38.677Z,7.65
2019-01-03T15:56:09.375Z,8.50
2019-01-03T15:58:39.531Z,7.87
2019-01-03T16:01:11.610Z,7.35
2019-01-03T16:03:44.265Z,7.87
2019-01-03T16:06:16.353Z,7.60
2019-01-03T16:08:45.556Z,6.70
2019-01-03T16:11:14.981Z,6.28
2019-01-03T16:13:44.471Z,6.95
2019-01-03T16:16:13.980Z,5.60
2019-01-03T16:18:44.656Z,5.70
2019-01-03T16:21:18.211Z,5.35
2019-01-03T16:23:47.512Z,6.30
2019-01-03T16:26:17.910Z,6.53
2019-01-03T16:28:47.079Z,5.47
2019-01-03T16:31:18.918Z,5.25
2019-01-03T16:33:50.428Z,4.80
2019-01-03T16:36:23.094Z,4.97
2019-01-03T16:38:53.230Z,3.67
2019-01-03T16:41:23.092Z,4.20
2019-01-03T16:43:52.658Z,4.30
2019-01-03T16:46:22.938Z,4.83
2019-01-03T16:48:54.830Z,4.80
2019-01-03T16:51:24.564Z,5.33
2019-01-03T16:53:57.782Z,5.10
2019-01-03T16:56:28.008Z,4.55
2019-01-03T16:58:57.534Z,4.80
2019-01-03T17:01:27.771Z,4.35
2019-01-03T17:03:57.155Z,4.55
2019-01-03T17:06:26.694Z,5.15
2019-01-03T17:08:56.525Z,5.10
2019-01-03T17:11:25.988Z,5.30
2019-01-03T17:13:57.022Z,4.70
2019-01-03T17:16:26.687Z,4.53
2019-01-03T17:18:55.821Z,4.53
2019-01-03T17:21:25.186Z,4.42
2019-01-03T17:23:56.635Z,3.55
2019-01-03T17:26:26.537Z,3.50
2019-01-03T17:28:55.742Z,5.00
2019-01-03T17:31:25.891Z,3.98
2019-01-03T17:33:55.491Z,4.45
2019-01-03T17:36:25.044Z,3.80
2019-01-03T17:38:54.232Z,4.20
2019-01-03T17:41:23.628Z,3.87
2019-01-03T17:43:52.911Z,4.20
2019-01-03T17:46:25.031Z,4.50
2019-01-03T17:48:54.524Z,4.92
2019-01-03T17:51:23.778Z,3.72
2019-01-03T17:53:53.070Z,4.58
2019-01-03T17:56:23.925Z,4.60
2019-01-03T17:58:54.619Z,4.10
2019-01-03T18:01:25.695Z,3.90
2019-01-03T18:03:58.903Z,4.20
2019-01-03T18:06:29.325Z,4.40
2019-01-03T18:08:59.812Z,4.25
2019-01-03T18:11:34.247Z,6.12
2019-01-03T18:14:05.423Z,5.30
2019-01-03T18:16:36.877Z,4.00
2019-01-03T18:19:08.452Z,5.33
2019-01-03T18:21:37.705Z,4.40
2019-01-03T18:24:07.300Z,3.87
2019-01-03T18:26:38.412Z,4.17
2019-01-03T18:29:07.683Z,4.05
2019-01-03T18:31:37.343Z,4.40
2019-01-03T18:34:06.729Z,4.50
2019-01-03T18:36:40.472Z,4.37
2019-01-03T18:39:13.849Z,5.87
2019-01-03T18:41:43.151Z,6.67
2019-01-03T18:44:13.075Z,6.05
2019-01-03T18:46:43.270Z,6.25
2019-01-03T18:49:15.039Z,6.65
2019-01-03T18:51:46.692Z,6.50
2019-01-03T18:54:19.010Z,6.10
2019-01-03T18:56:48.690Z,6.42
2019-01-03T18:59:19.622Z,6.45
2019-01-03T19:01:49.160Z,6.60
2019-01-03T19:04:19.423Z,7.00
2019-01-03T19:06:49.418Z,5.20
2019-01-03T19:09:18.654Z,5.47
2019-01-03T19:11:47.941Z,5.47
2019-01-03T19:14:19.539Z,6.28
2019-01-03T19:16:49.109Z,5.80
2019-01-03T19:19:18.509Z,5.62
2019-01-03T19:21:47.763Z,6.42
2019-01-03T19:24:17.005Z,7.55
2019-01-03T19:26:46.615Z,6.25
2019-01-03T19:29:15.927Z,7.35
2019-01-03T19:31:45.753Z,6.90
2019-01-03T19:34:15.056Z,6.80
2019-01-03T19:36:44.403Z,6.90
2019-01-03T19:39:13.666Z,9.23
2019-01-03T19:41:42.886Z,9.58
2019-01-03T19:44:12.175Z,14.30
2019-01-03T19:46:41.470Z,24.80
2019-01-03T19:49:13.554Z,12.10
2019-01-03T19:51:42.916Z,13.28
2019-01-03T19:54:12.612Z,17.80
2019-01-03T19:56:44.172Z,24.20
2019-01-03T19:59:14.456Z,34.20
2019-01-03T20:01:43.813Z,20.10
2019-01-03T20:04:14.858Z,18.48
2019-01-03T20:06:44.107Z,18.62
2019-01-03T20:09:13.490Z,11.12
2019-01-03T20:11:42.830Z,42.78
2019-01-03T20:14:13.450Z,17.90
2019-01-03T20:16:42.687Z,15.15
2019-01-03T20:19:18.458Z,13.78
2019-01-03T20:21:49.877Z,10.58
2019-01-03T20:24:19.918Z,31.00
2019-01-03T20:26:50.049Z,12.55
2019-01-03T20:29:19.781Z,12.15
2019-01-03T20:31:49.438Z,12.75
2019-01-03T20:34:20.815Z,25.90
2019-01-03T20:36:50.165Z,18.82
2019-01-03T20:39:20.442Z,16.48
2019-01-03T20:41:49.936Z,16.30
2019-01-03T20:44:20.117Z,12.78
2019-01-03T20:46:51.496Z,15.93
2019-01-03T20:49:20.806Z,21.87
2019-01-03T20:51:50.317Z,14.00
2019-01-03T20:54:20.338Z,15.30
2019-01-03T20:56:49.597Z,14.15
2019-01-03T20:59:19.201Z,12.63
2019-01-03T21:01:49.755Z,16.57
2019-01-03T21:04:20.172Z,17.55
2019-01-03T21:06:51.246Z,18.98
2019-01-03T21:09:20.750Z,19.75
2019-01-03T21:11:53.566Z,19.02
2019-01-03T21:14:23.052Z,18.90
2019-01-03T21:16:52.757Z,25.55
2019-01-03T21:19:22.043Z,18.50
2019-01-03T21:21:51.214Z,17.17
2019-01-03T21:24:20.449Z,17.32
2019-01-03T21:26:49.759Z,17.65
2019-01-03T21:29:19.096Z,16.67
2019-01-03T21:31:48.592Z,20.30
2019-01-03T21:34:20.713Z,19.05
2019-01-03T21:36:50.432Z,17.55
2019-01-03T21:39:20.099Z,20.27
2019-01-03T21:42:00.172Z,18.42
2019-01-03T21:44:30.480Z,22.42
2019-01-03T21:46:59.693Z,17.70
2019-01-03T21:49:29.080Z,17.50
2019-01-03T21:52:01.758Z,18.23
2019-01-03T21:54:31.092Z,14.98
2019-01-03T21:57:00.375Z,17.48
2019-01-03T21:59:32.446Z,15.10
2019-01-03T22:02:02.454Z,15.00
2019-01-03T22:04:33.040Z,15.45
2019-01-03T22:07:02.634Z,15.28
2019-01-03T22:09:32.304Z,14.68
2019-01-03T22:12:03.119Z,15.13
2019-01-03T22:14:32.320Z,16.17
2019-01-03T22:17:01.614Z,17.00
2019-01-03T22:19:31.204Z,15.78
2019-01-03T22:22:00.458Z,16.17
2019-01-03T22:24:30.579Z,16.65
2019-01-03T22:26:59.795Z,16.27
2019-01-03T22:29:29.368Z,14.95
2019-01-03T22:31:58.566Z,15.78
2019-01-03T22:34:30.826Z,14.45
2019-01-03T22:36:59.952Z,15.28
2019-01-03T22:39:29.542Z,15.45
2019-01-03T22:41:58.832Z,25.70
2019-01-03T22:44:28.123Z,19.10
2019-01-03T22:46:57.511Z,16.85
2019-01-03T22:49:26.873Z,17.02
2019-01-03T22:51:56.089Z,15.63
2019-01-03T22:54:25.355Z,15.35
2019-01-03T22:56:54.655Z,16.20
2019-01-03T22:59:25.869Z,17.62
2019-01-03T23:01:55.437Z,15.75
2019-01-03T23:04:25.117Z,16.35
2019-01-03T23:06:54.272Z,16.95
2019-01-03T23:09:23.495Z,18.60
2019-01-03T23:11:54.219Z,17.23
2019-01-03T23:14:23.547Z,17.35
2019-01-03T23:16:52.759Z,19.02
2019-01-03T23:19:21.973Z,18.95
2019-01-03T23:21:51.394Z,18.30
2019-01-03T23:24:20.541Z,17.52
2019-01-03T23:26:49.704Z,17.57
2019-01-03T23:29:18.937Z,17.65
2019-01-03T23:31:50.157Z,18.98
2019-01-03T23:34:19.382Z,17.23
2019-01-03T23:36:49.540Z,19.60
2019-01-03T23:39:18.767Z,18.82
2019-01-03T23:41:48.023Z,17.95
2019-01-03T23:44:17.234Z,21.10
2019-01-03T23:46:47.136Z,19.50
2019-01-03T23:49:16.305Z,18.37
2019-01-03T23:51:45.528Z,20.70
2019-01-03T23:54:14.759Z,19.40
2019-01-03T23:56:44.042Z,19.12
2019-01-03T23:59:14.148Z,20.20
